Time,TemperatureF,DewpointF,PressureIn,WindDirection,WindDirectionDegrees,WindSpeedMPH,WindSpeedGustMPH,Humidity,HourlyPrecipIn,Conditions,Clouds,dailyrainin,SolarRadiationWatts/m^2,SoftwareType,DateUTC
2013-06-16 00:14:00,62.0,59.0,29.99,West,271,0.0,-999.0,90,-99.99,,,0.00,0,weatherlink.com 1.10,2013-06-16 04:14:00,
2013-06-16 00:29:00,61.8,59.0,29.99,West,271,0.0,-999.0,91,-99.99,,,0.00,0,weatherlink.com 1.10,2013-06-16 04:29:00,
2013-06-16 00:44:00,61.9,59.0,29.99,West,271,0.0,-999.0,91,-99.99,,,0.00,0,weatherlink.com 1.10,2013-06-16 04:44:00,
2013-06-16 00:59:00,62.1,60.0,30.00,West,270,0.0,-999.0,91,-99.99,,,0.00,0,weatherlink.com 1.10,2013-06-16 04:59:00,
2013-06-16 01:14:00,62.5,60.0,30.00,West,271,0.0,-999.0,91,-99.99,,,0.00,0,weatherlink.com 1.10,2013-06-16 05:14:00,
2013-06-16 01:29:00,62.5,60.0,30.00,West,271,0.0,-999.0,91,-99.99,,,0.00,0,weatherlink.com 1.10,2013-06-16 05:29:00,
2013-06-16 01:44:00,62.0,60.0,29.99,West,271,0.0,-999.0,92,-99.99,,,0.00,0,weatherlink.com 1.10,2013-06-16 05:44:00,
2013-06-16 01:59:00,61.6,59.0,29.99,West,270,0.0,-999.0,92,-99.99,,,0.00,0,weatherlink.com 1.10,2013-06-16 05:59:00,
2013-06-16 02:14:00,61.1,59.0,29.99,West,270,0.0,-999.0,93,-99.99,,,0.00,0,weatherlink.com 1.10,2013-06-16 06:14:00,
2013-06-16 02:29:00,60.8,59.0,30.00,West,270,0.0,-999.0,94,-99.99,,,0.00,0,weatherlink.com 1.10,2013-06-16 06:29:00,
2013-06-16 02:44:00,60.8,59.0,30.00,West,271,0.0,-999.0,95,-99.99,,,0.00,0,weatherlink.com 1.10,2013-06-16 06:44:00,
2013-06-16 02:59:00,60.7,59.0,29.99,West,271,0.0,-999.0,95,-99.99,,,0.00,0,weatherlink.com 1.10,2013-06-16 06:59:00,
2013-06-16 03:14:00,60.6,60.0,30.00,West,271,0.0,-999.0,96,-99.99,,,0.00,0,weatherlink.com 1.10,2013-06-16 07:14:00,
2013-06-16 03:29:00,60.4,59.0,29.99,West,270,0.0,-999.0,95,-99.99,,,0.00,0,weatherlink.com 1.10,2013-06-16 07:29:00,
2013-06-16 03:44:00,60.0,59.0,29.99,West,271,0.0,-999.0,95,-99.99,,,0.00,0,weatherlink.com 1.10,2013-06-16 07:44:00,
2013-06-16 03:59:00,59.6,59.0,29.99,West,271,0.0,-999.0,96,-99.99,,,0.00,0,weatherlink.com 1.10,2013-06-16 07:59:00,
2013-06-16 04:14:00,59.5,58.0,30.00,West,271,0.0,-999.0,96,-99.99,,,0.00,0,weatherlink.com 1.10,2013-06-16 08:14:00,
2013-06-16 04:29:00,59.6,59.0,30.00,West,271,0.0,-999.0,96,-99.99,,,0.00,0,weatherlink.com 1.10,2013-06-16 08:29:00,
2013-06-16 04:44:00,59.5,59.0,29.99,West,270,0.0,-999.0,97,-99.99,,,0.00,0,weatherlink.com 1.10,2013-06-16 08:44:00,
2013-06-16 04:59:00,59.5,59.0,29.99,West,270,0.0,-999.0,97,-99.99,,,0.00,0,weatherlink.com 1.10,2013-06-16 08:59:00,
2013-06-16 05:14:00,59.6,59.0,29.99,West,270,0.0,-999.0,97,-99.99,,,0.00,0,weatherlink.com 1.10,2013-06-16 09:14:00,
2013-06-16 05:29:00,59.6,59.0,29.99,West,270,0.0,-999.0,97,-99.99,,,0.00,0,weatherlink.com 1.10,2013-06-16 09:29:00,
2013-06-16 05:44:00,59.5,59.0,29.99,West,271,0.0,-999.0,97,-99.99,,,0.00,12,weatherlink.com 1.10,2013-06-16 09:44:00,
2013-06-16 05:59:00,59.5,59.0,29.98,West,270,0.0,-999.0,97,-99.99,,,0.00,26,weatherlink.com 1.10,2013-06-16 09:59:00,
2013-06-16 06:14:00,59.9,59.0,29.98,West,271,0.0,-999.0,97,-99.99,,,0.00,33,weatherlink.com 1.10,2013-06-16 10:14:00,
2013-06-16 06:29:00,60.4,60.0,29.99,West,270,0.0,-999.0,97,-99.99,,,0.00,32,weatherlink.com 1.10,2013-06-16 10:29:00,
2013-06-16 06:44:00,60.9,60.0,29.99,West,271,0.0,-999.0,96,-99.99,,,0.00,42,weatherlink.com 1.10,2013-06-16 10:44:00,
2013-06-16 06:59:00,61.5,60.0,29.99,West,270,0.0,-999.0,95,-99.99,,,0.00,28,weatherlink.com 1.10,2013-06-16 10:59:00,
2013-06-16 07:14:00,61.8,60.0,29.99,West,270,0.0,-999.0,93,-99.99,,,0.00,39,weatherlink.com 1.10,2013-06-16 11:14:00,
2013-06-16 07:29:00,62.3,60.0,29.99,West,270,0.0,-999.0,92,-99.99,,,0.00,63,weatherlink.com 1.10,2013-06-16 11:29:00,
2013-06-16 07:44:00,62.9,61.0,29.99,West,271,0.0,-999.0,92,-99.99,,,0.00,76,weatherlink.com 1.10,2013-06-16 11:44:00,
2013-06-16 07:59:00,63.5,60.0,29.99,West,271,0.0,-999.0,89,-99.99,,,0.00,65,weatherlink.com 1.10,2013-06-16 11:59:00,
2013-06-16 08:14:00,64.1,61.0,29.98,West,270,0.0,-999.0,90,-99.99,,,0.00,141,weatherlink.com 1.10,2013-06-16 12:14:00,
2013-06-16 08:30:00,64.9,61.0,29.98,West,271,0.0,-999.0,87,-99.99,,,0.00,95,weatherlink.com 1.10,2013-06-16 12:30:00,
2013-06-16 08:45:00,65.7,61.0,29.98,West,271,0.0,-999.0,85,-99.99,,,0.00,107,weatherlink.com 1.10,2013-06-16 12:45:00,
2013-06-16 09:00:00,66.5,62.0,29.97,West,271,1.0,-999.0,84,-99.99,,,0.00,79,weatherlink.com 1.10,2013-06-16 13:00:00,
2013-06-16 09:15:00,66.9,62.0,29.97,West,271,0.0,-999.0,83,-99.99,,,0.00,114,weatherlink.com 1.10,2013-06-16 13:15:00,
2013-06-16 09:30:00,67.4,62.0,29.96,SSW,199,0.0,-999.0,83,-99.99,,,0.00,125,weatherlink.com 1.10,2013-06-16 13:30:00,
2013-06-16 09:45:00,67.9,63.0,29.96,SSW,199,3.0,-999.0,83,-99.99,,,0.00,181,weatherlink.com 1.10,2013-06-16 13:45:00,
2013-06-16 10:00:00,68.6,62.0,29.95,SSW,199,0.0,-999.0,80,-99.99,,,0.00,237,weatherlink.com 1.10,2013-06-16 14:00:00,
2013-06-16 10:15:00,69.9,62.0,29.94,SSW,200,2.0,-999.0,77,-99.99,,,0.00,332,weatherlink.com 1.10,2013-06-16 14:15:00,
2013-06-16 10:30:00,71.4,62.0,29.94,SSW,200,0.0,-999.0,71,-99.99,,,0.00,418,weatherlink.com 1.10,2013-06-16 14:30:00,
2013-06-16 10:45:00,73.9,62.0,29.93,SSW,200,1.0,-999.0,67,-99.99,,,0.00,415,weatherlink.com 1.10,2013-06-16 14:45:00,
2013-06-16 11:00:00,75.3,61.0,29.93,SSW,210,1.0,-999.0,62,-99.99,,,0.00,686,weatherlink.com 1.10,2013-06-16 15:00:00,
2013-06-16 11:15:00,77.6,63.0,29.92,SW,229,1.0,-999.0,61,-99.99,,,0.00,916,weatherlink.com 1.10,2013-06-16 15:15:00,
2013-06-16 11:30:00,80.0,63.0,29.91,SSE,155,2.0,-999.0,57,-99.99,,,0.00,939,weatherlink.com 1.10,2013-06-16 15:30:00,
2013-06-16 11:45:00,81.1,62.0,29.90,SSW,202,6.0,-999.0,53,-99.99,,,0.00,882,weatherlink.com 1.10,2013-06-16 15:45:00,
2013-06-16 12:00:00,81.0,63.0,29.89,West,279,0.0,-999.0,55,-99.99,,,0.00,1030,weatherlink.com 1.10,2013-06-16 16:00:00,
2013-06-16 12:15:00,82.3,65.0,29.88,SSW,202,2.0,-999.0,56,-99.99,,,0.00,914,weatherlink.com 1.10,2013-06-16 16:15:00,
2013-06-16 12:31:00,82.9,67.0,29.87,WSW,245,0.0,-999.0,58,-99.99,,,0.00,960,weatherlink.com 1.10,2013-06-16 16:31:00,
2013-06-16 12:46:00,84.7,66.0,29.86,NNW,343,2.0,-999.0,54,-99.99,,,0.00,965,weatherlink.com 1.10,2013-06-16 16:46:00,
2013-06-16 13:01:00,84.4,67.0,29.85,South,178,1.0,-999.0,57,-99.99,,,0.00,932,weatherlink.com 1.10,2013-06-16 17:01:00,
2013-06-16 13:16:00,84.7,68.0,29.84,NNW,346,2.0,-999.0,57,-99.99,,,0.00,807,weatherlink.com 1.10,2013-06-16 17:16:00,
2013-06-16 13:31:00,83.9,67.0,29.83,WSW,237,6.0,-999.0,58,-99.99,,,0.00,469,weatherlink.com 1.10,2013-06-16 17:31:00,
2013-06-16 13:46:00,83.8,67.0,29.83,WNW,294,0.0,-999.0,57,-99.99,,,0.00,271,weatherlink.com 1.10,2013-06-16 17:46:00,
2013-06-16 14:01:00,82.5,66.0,29.82,NNW,344,0.0,-999.0,57,-99.99,,,0.00,592,weatherlink.com 1.10,2013-06-16 18:01:00,
2013-06-16 14:16:00,82.5,67.0,29.82,North,360,2.0,-999.0,60,-99.99,,,0.00,473,weatherlink.com 1.10,2013-06-16 18:16:00,
2013-06-16 14:31:00,83.1,66.0,29.82,West,274,3.0,-999.0,56,-99.99,,,0.00,397,weatherlink.com 1.10,2013-06-16 18:31:00,
2013-06-16 14:46:00,83.2,66.0,29.81,WNW,292,0.0,-999.0,57,-99.99,,,0.00,473,weatherlink.com 1.10,2013-06-16 18:46:00,
2013-06-16 15:01:00,82.7,65.0,29.81,NNW,328,2.0,-999.0,56,-99.99,,,0.00,281,weatherlink.com 1.10,2013-06-16 19:01:00,
2013-06-16 15:16:00,84.0,67.0,29.81,SSW,202,3.0,-999.0,57,-99.99,,,0.00,318,weatherlink.com 1.10,2013-06-16 19:16:00,
2013-06-16 15:31:00,83.8,67.0,29.80,SSE,167,6.0,-999.0,57,-99.99,,,0.00,320,weatherlink.com 1.10,2013-06-16 19:31:00,
2013-06-16 15:46:00,83.7,66.0,29.80,NW,319,3.0,-999.0,55,-99.99,,,0.00,633,weatherlink.com 1.10,2013-06-16 19:46:00,
2013-06-16 16:01:00,83.8,65.0,29.80,SW,225,1.0,-999.0,54,-99.99,,,0.00,506,weatherlink.com 1.10,2013-06-16 20:01:00,
2013-06-16 16:16:00,83.6,66.0,29.80,NNW,336,2.0,-999.0,56,-99.99,,,0.00,475,weatherlink.com 1.10,2013-06-16 20:16:00,
2013-06-16 16:31:00,83.3,65.0,29.80,WSW,253,7.0,-999.0,55,-99.99,,,0.00,545,weatherlink.com 1.10,2013-06-16 20:31:00,
2013-06-16 16:46:00,82.4,65.0,29.80,NW,311,7.0,-999.0,55,-99.99,,,0.00,230,weatherlink.com 1.10,2013-06-16 20:46:00,
2013-06-16 17:01:00,82.1,66.0,29.81,SSW,208,5.0,-999.0,58,-99.99,,,0.00,163,weatherlink.com 1.10,2013-06-16 21:01:00,
2013-06-16 17:16:00,81.8,66.0,29.81,SW,223,2.0,-999.0,59,-99.99,,,0.00,195,weatherlink.com 1.10,2013-06-16 21:16:00,
2013-06-16 17:31:00,81.4,65.0,29.81,WSW,245,2.0,-999.0,58,-99.99,,,0.00,160,weatherlink.com 1.10,2013-06-16 21:31:00,
2013-06-16 17:46:00,80.8,66.0,29.81,West,265,2.0,-999.0,60,-99.99,,,0.00,146,weatherlink.com 1.10,2013-06-16 21:46:00,
2013-06-16 18:01:00,80.6,66.0,29.81,SW,231,0.0,-999.0,61,-99.99,,,0.00,111,weatherlink.com 1.10,2013-06-16 22:01:00,
2013-06-16 18:16:00,80.3,66.0,29.82,NNW,339,3.0,-999.0,62,-99.99,,,0.00,139,weatherlink.com 1.10,2013-06-16 22:16:00,
2013-06-16 18:31:00,80.2,66.0,29.81,WSW,252,0.0,-999.0,63,-99.99,,,0.00,123,weatherlink.com 1.10,2013-06-16 22:31:00,
2013-06-16 18:46:00,80.0,66.0,29.81,WNW,294,2.0,-999.0,62,-99.99,,,0.00,76,weatherlink.com 1.10,2013-06-16 22:46:00,
2013-06-16 19:01:00,80.0,66.0,29.81,South,175,14.0,-999.0,62,-99.99,,,0.00,93,weatherlink.com 1.10,2013-06-16 23:01:00,
2013-06-16 19:16:00,79.3,66.0,29.82,SSE,159,2.0,-999.0,63,-99.99,,,0.00,44,weatherlink.com 1.10,2013-06-16 23:16:00,
2013-06-16 19:31:00,78.8,65.0,29.82,North,360,0.0,-999.0,63,-99.99,,,0.00,39,weatherlink.com 1.10,2013-06-16 23:31:00,
2013-06-16 19:46:00,78.5,65.0,29.82,SW,229,0.0,-999.0,64,-99.99,,,0.00,21,weatherlink.com 1.10,2013-06-16 23:46:00,
2013-06-16 20:01:00,77.8,66.0,29.82,SSW,200,1.0,-999.0,66,-99.99,,,0.00,12,weatherlink.com 1.10,2013-06-17 00:01:00,
2013-06-16 20:16:00,77.3,66.0,29.82,South,178,0.0,-999.0,68,-99.99,,,0.00,7,weatherlink.com 1.10,2013-06-17 00:16:00,
2013-06-16 20:31:00,76.7,66.0,29.82,WNW,289,0.0,-999.0,69,-99.99,,,0.00,0,weatherlink.com 1.10,2013-06-17 00:31:00,
2013-06-16 20:46:00,76.1,66.0,29.83,SW,232,0.0,-999.0,71,-99.99,,,0.00,0,weatherlink.com 1.10,2013-06-17 00:46:00,
2013-06-16 21:01:00,75.3,67.0,29.84,SSW,210,1.0,-999.0,74,-99.99,,,0.00,0,weatherlink.com 1.10,2013-06-17 01:01:00,
2013-06-16 21:16:00,74.6,67.0,29.84,North,350,0.0,-999.0,77,-99.99,,,0.00,0,weatherlink.com 1.10,2013-06-17 01:16:00,
2013-06-16 21:31:00,74.0,67.0,29.84,South,177,0.0,-999.0,79,-99.99,,,0.00,0,weatherlink.com 1.10,2013-06-17 01:31:00,
2013-06-16 21:46:00,73.5,67.0,29.85,SW,232,0.0,-999.0,80,-99.99,,,0.00,0,weatherlink.com 1.10,2013-06-17 01:46:00,
2013-06-16 22:01:00,73.0,67.0,29.86,NNW,342,0.0,-999.0,82,-99.99,,,0.00,0,weatherlink.com 1.10,2013-06-17 02:01:00,
2013-06-16 22:16:00,72.4,67.0,29.86,North,10,0.0,-999.0,83,-99.99,,,0.00,0,weatherlink.com 1.10,2013-06-17 02:16:00,
2013-06-16 22:31:00,72.1,67.0,29.86,WNW,288,0.0,-999.0,84,-99.99,,,0.00,0,weatherlink.com 1.10,2013-06-17 02:31:00,
2013-06-16 22:46:00,71.5,67.0,29.86,WSW,237,0.0,-999.0,85,-99.99,,,0.00,0,weatherlink.com 1.10,2013-06-17 02:46:00,
2013-06-16 23:01:00,71.0,67.0,29.86,WSW,237,0.0,-999.0,86,-99.99,,,0.00,0,weatherlink.com 1.10,2013-06-17 03:01:00,
2013-06-16 23:16:00,70.5,67.0,29.86,SW,224,0.0,-999.0,88,-99.99,,,0.00,0,weatherlink.com 1.10,2013-06-17 03:16:00,
2013-06-16 23:31:00,70.0,67.0,29.86,SSW,202,0.0,-999.0,89,-99.99,,,0.00,0,weatherlink.com 1.10,2013-06-17 03:31:00,
2013-06-16 23:46:00,69.5,67.0,29.86,SSW,202,0.0,-999.0,90,-99.99,,,0.00,0,weatherlink.com 1.10,2013-06-17 03:46:00,